createdAt,value
2016-05-25T00:00:45.641Z,0
2016-05-25T00:01:46.472Z,0
2016-05-25T00:02:45.755Z,0
2016-05-25T00:03:45.993Z,0
2016-05-25T00:04:46.136Z,0
2016-05-25T00:05:46.045Z,0
2016-05-25T00:06:58.863Z,0
2016-05-25T00:07:46.082Z,0
2016-05-25T00:08:46.100Z,0
2016-05-25T00:10:05.340Z,0
2016-05-25T00:10:45.824Z,0
2016-05-25T00:12:05.345Z,0
2016-05-25T00:12:47.563Z,0
2016-05-25T00:13:47.629Z,0
2016-05-25T00:14:46.210Z,0
2016-05-25T00:15:59.091Z,0
2016-05-25T00:16:46.638Z,0
2016-05-25T00:17:46.140Z,0
2016-05-25T00:18:46.284Z,0
2016-05-25T00:19:46.426Z,0
2016-05-25T00:20:59.057Z,0
2016-05-25T00:21:58.965Z,0
2016-05-25T00:23:11.890Z,0
2016-05-25T00:23:46.375Z,0
2016-05-25T00:24:46.237Z,0
2016-05-25T00:25:58.851Z,0
2016-05-25T00:26:47.851Z,0
2016-05-25T00:28:12.123Z,0
2016-05-25T00:28:46.154Z,0
2016-05-25T00:29:46.360Z,0
2016-05-25T00:30:46.519Z,0
2016-05-25T00:31:46.569Z,0
2016-05-25T00:32:49.321Z,0
2016-05-25T00:33:59.295Z,0
2016-05-25T00:34:46.577Z,0
2016-05-25T00:35:46.610Z,0
2016-05-25T00:36:46.660Z,0
2016-05-25T00:37:48.052Z,0
2016-05-25T00:38:46.525Z,0
2016-05-25T00:39:49.716Z,0
2016-05-25T00:40:46.561Z,0
2016-05-25T00:41:46.736Z,0
2016-05-25T00:42:46.754Z,0
2016-05-25T00:43:46.897Z,0
2016-05-25T00:44:48.024Z,0
2016-05-25T00:45:46.637Z,0
2016-05-25T00:46:47.030Z,0
2016-05-25T00:47:59.599Z,0
2016-05-25T00:48:46.880Z,0
2016-05-25T00:49:46.882Z,0
2016-05-25T00:50:46.745Z,0
2016-05-25T00:51:49.981Z,0
2016-05-25T00:52:46.796Z,0
2016-05-25T00:53:53.065Z,0
2016-05-25T00:54:47.036Z,0
2016-05-25T00:55:46.993Z,0
2016-05-25T00:56:47.104Z,0
2016-05-25T00:57:47.044Z,0
2016-05-25T00:58:47.109Z,0
2016-05-25T00:59:49.800Z,0
2016-05-25T01:00:46.928Z,0
2016-05-25T01:01:47.867Z,0
2016-05-25T01:02:47.167Z,0
2016-05-25T01:03:47.155Z,0
2016-05-25T01:04:47.188Z,0
2016-05-25T01:05:46.972Z,0
2016-05-25T01:06:47.208Z,0
2016-05-25T01:07:47.258Z,0
2016-05-25T01:08:50.293Z,0
2016-05-25T01:09:47.296Z,0
2016-05-25T01:10:47.142Z,0
2016-05-25T01:12:00.100Z,0
2016-05-25T01:13:00.087Z,0
2016-05-25T01:13:47.212Z,0
2016-05-25T01:14:47.355Z,0
2016-05-25T01:15:47.374Z,0
2016-05-25T01:16:47.673Z,0
2016-05-25T01:17:47.113Z,0
2016-05-25T01:18:47.570Z,0
2016-05-25T01:19:47.307Z,0
2016-05-25T01:21:00.059Z,0
2016-05-25T01:21:48.906Z,0
2016-05-25T01:22:47.581Z,0
2016-05-25T01:23:47.551Z,0
2016-05-25T01:24:49.445Z,0
2016-05-25T01:26:00.325Z,0
2016-05-25T01:26:47.591Z,0
2016-05-25T01:28:06.722Z,0
2016-05-25T01:28:47.628Z,0
2016-05-25T01:29:47.521Z,0
2016-05-25T01:30:48.945Z,0
2016-05-25T01:31:47.870Z,0
2016-05-25T01:32:47.717Z,0
2016-05-25T01:34:00.597Z,0
2016-05-25T01:34:47.597Z,0
2016-05-25T01:36:07.055Z,0
2016-05-25T01:36:47.633Z,0
2016-05-25T01:37:49.214Z,0
2016-05-25T01:38:49.263Z,0
2016-05-25T01:40:07.176Z,0
2016-05-25T01:40:47.880Z,0
2016-05-25T01:41:47.897Z,0
2016-05-25T01:42:47.760Z,0
2016-05-25T01:43:47.918Z,0
2016-05-25T01:44:47.796Z,0
2016-05-25T01:45:47.971Z,0
2016-05-25T01:46:48.285Z,0
2016-05-25T01:47:48.007Z,0
2016-05-25T01:48:48.072Z,0
2016-05-25T01:49:47.872Z,0
2016-05-25T01:50:48.062Z,0
2016-05-25T01:51:47.939Z,0
2016-05-25T01:52:48.380Z,0
2016-05-25T01:53:48.132Z,0
2016-05-25T01:54:48.135Z,0
2016-05-25T01:55:48.012Z,0
2016-05-25T01:56:48.187Z,0
2016-05-25T01:57:48.190Z,0
2016-05-25T01:58:48.223Z,0
2016-05-25T01:59:48.305Z,0
2016-05-25T02:00:48.261Z,0
2016-05-25T02:01:48.154Z,0
2016-05-25T02:02:48.142Z,0
2016-05-25T02:03:48.347Z,0
2016-05-25T02:04:48.334Z,0
2016-05-25T02:06:07.542Z,0
2016-05-25T02:06:48.370Z,0
2016-05-25T02:08:00.983Z,0
2016-05-25T02:08:48.485Z,0
2016-05-25T02:10:14.116Z,0
2016-05-25T02:10:51.491Z,0
2016-05-25T02:11:48.291Z,0
2016-05-25T02:12:49.997Z,0
2016-05-25T02:13:48.343Z,0
2016-05-25T02:14:48.564Z,0
2016-05-25T02:15:48.394Z,0
2016-05-25T02:16:50.491Z,0
2016-05-25T02:17:50.009Z,0
2016-05-25T02:19:01.340Z,0
2016-05-25T02:19:49.874Z,0
2016-05-25T02:20:48.612Z,0
2016-05-25T02:21:48.504Z,0
2016-05-25T02:22:48.679Z,0
2016-05-25T02:23:48.588Z,0
2016-05-25T02:24:48.701Z,0
2016-05-25T02:25:48.828Z,0
2016-05-25T02:26:48.753Z,0
2016-05-25T02:27:48.848Z,0
2016-05-25T02:28:48.789Z,0
2016-05-25T02:30:08.044Z,0
2016-05-25T02:30:50.106Z,0
2016-05-25T02:31:48.641Z,0
2016-05-25T02:33:08.068Z,0
2016-05-25T02:33:50.303Z,0
2016-05-25T02:34:49.165Z,0
2016-05-25T02:35:51.823Z,0
2016-05-25T02:36:48.951Z,0
2016-05-25T02:37:49.000Z,0
2016-05-25T02:38:49.035Z,0
2016-05-25T02:39:49.005Z,0
2016-05-25T02:40:49.025Z,0
2016-05-25T02:41:48.902Z,0
2016-05-25T02:43:01.827Z,0
2016-05-25T02:43:49.064Z,0
2016-05-25T02:44:49.113Z,0
2016-05-25T02:45:49.100Z,0
2016-05-25T02:46:49.135Z,0
2016-05-25T02:47:50.387Z,0
2016-05-25T02:48:49.015Z,0
2016-05-25T02:49:50.657Z,0
2016-05-25T02:50:48.910Z,0
2016-05-25T02:51:49.321Z,0
2016-05-25T02:52:49.275Z,0
2016-05-25T02:54:02.029Z,0
2016-05-25T02:54:49.312Z,0
2016-05-25T02:55:49.299Z,0
2016-05-25T02:56:49.177Z,0
2016-05-25T02:57:49.273Z,0
2016-05-25T02:58:49.073Z,0
2016-05-25T02:59:49.075Z,0
2016-05-25T03:00:49.547Z,0
2016-05-25T03:01:49.284Z,0
2016-05-25T03:02:51.053Z,0
2016-05-25T03:03:49.477Z,0
2016-05-25T03:04:49.573Z,0
2016-05-25T03:06:09.032Z,0
2016-05-25T03:06:49.376Z,0
2016-05-25T03:07:49.566Z,0
2016-05-25T03:08:49.569Z,0
2016-05-25T03:09:49.586Z,0
2016-05-25T03:10:49.605Z,0
2016-05-25T03:11:52.544Z,0
2016-05-25T03:12:49.642Z,0
2016-05-25T03:13:49.769Z,0
2016-05-25T03:14:52.538Z,0
2016-05-25T03:16:02.571Z,0
2016-05-25T03:17:02.340Z,0
2016-05-25T03:18:15.111Z,0
2016-05-25T03:19:02.330Z,0
2016-05-25T03:19:49.676Z,0
2016-05-25T03:21:46.666Z,5
2016-05-25T03:21:59.322Z,5
2016-05-25T03:22:59.357Z,5
2016-05-25T03:24:12.143Z,5
2016-05-25T03:24:59.252Z,5
2016-05-25T03:26:25.071Z,5
2016-05-25T03:26:59.446Z,5
2016-05-25T03:27:59.463Z,5
2016-05-25T03:28:59.498Z,5
2016-05-25T03:29:59.500Z,5
2016-05-25T03:31:02.581Z,5
2016-05-25T03:32:00.193Z,5
2016-05-25T03:33:18.589Z,10
2016-05-25T03:33:59.417Z,10
2016-05-25T03:36:02.063Z,10
2016-05-25T03:36:33.972Z,10
2016-05-25T03:37:14.772Z,10
2016-05-25T03:39:20.402Z,10
2016-05-25T03:39:52.292Z,10
2016-05-25T03:40:33.092Z,10
2016-05-25T03:42:29.910Z,15
2016-05-25T03:43:33.100Z,15
2016-05-25T03:44:37.133Z,15
2016-05-25T03:44:49.477Z,15
2016-05-25T03:46:53.764Z,15
2016-05-25T03:47:19.517Z,15
2016-05-25T03:48:06.458Z,20
2016-05-25T03:50:03.288Z,15
2016-05-25T03:50:41.447Z,15
2016-05-25T03:51:35.027Z,20
2016-05-25T03:52:47.312Z,20
2016-05-25T03:53:41.752Z,20
2016-05-25T03:54:47.332Z,20
2016-05-25T03:55:15.930Z,20
2016-05-25T03:56:16.057Z,20
2016-05-25T03:57:16.107Z,20
2016-05-25T03:58:28.860Z,20
2016-05-25T03:59:28.879Z,20
2016-05-25T04:01:27.133Z,20
2016-05-25T04:01:43.023Z,20
2016-05-25T04:02:39.840Z,20
2016-05-25T04:03:39.842Z,20
2016-05-25T04:06:15.147Z,25
2016-05-25T04:07:02.209Z,25
2016-05-25T04:09:41.576Z,25
2016-05-25T04:09:54.108Z,25
2016-05-25T04:11:13.160Z,25
2016-05-25T04:12:01.988Z,30
2016-05-25T04:14:03.994Z,30
2016-05-25T04:14:16.356Z,30
2016-05-25T04:16:13.986Z,30
2016-05-25T04:17:26.535Z,30
2016-05-25T04:19:55.626Z,30
2016-05-25T04:20:08.314Z,30
2016-05-25T04:21:08.357Z,35
2016-05-25T04:22:08.414Z,35
2016-05-25T04:23:09.889Z,35
2016-05-25T04:24:08.482Z,35
2016-05-25T04:25:21.302Z,35
2016-05-25T04:26:21.313Z,35
2016-05-25T04:28:10.992Z,35
2016-05-25T04:28:52.304Z,35
2016-05-25T04:29:49.357Z,35
2016-05-25T04:31:20.322Z,35
2016-05-25T04:31:53.681Z,35
2016-05-25T04:33:04.358Z,35
2016-05-25T04:35:06.759Z,35
2016-05-25T04:35:38.356Z,35
2016-05-25T04:36:19.517Z,35
2016-05-25T04:38:25.103Z,35
2016-05-25T04:38:57.009Z,35
2016-05-25T04:39:52.325Z,40
2016-05-25T04:41:59.596Z,40
2016-05-25T04:42:13.678Z,40
2016-05-25T04:44:29.637Z,40
2016-05-25T04:45:27.686Z,40
2016-05-25T04:46:28.173Z,40
2016-05-25T04:47:27.613Z,40
2016-05-25T04:48:27.615Z,40
2016-05-25T04:49:46.868Z,40
2016-05-25T04:50:27.481Z,40
2016-05-25T04:52:30.095Z,40
2016-05-25T04:53:08.486Z,40
2016-05-25T04:53:42.785Z,40
2016-05-25T04:55:45.369Z,40
2016-05-25T04:56:23.761Z,45
2016-05-25T04:56:58.183Z,45
2016-05-25T04:58:55.064Z,45
2016-05-25T04:59:07.721Z,45
2016-05-25T05:01:04.570Z,50
2016-05-25T05:01:17.150Z,50
2016-05-25T05:03:36.500Z,55
2016-05-25T05:04:17.174Z,55
2016-05-25T05:05:44.411Z,55
2016-05-25T05:06:30.101Z,55
2016-05-25T05:07:55.182Z,55
2016-05-25T05:08:48.654Z,55
2016-05-25T05:09:17.546Z,55
2016-05-25T05:11:20.006Z,55
2016-05-25T05:11:32.521Z,55
2016-05-25T05:12:32.759Z,55
2016-05-25T05:13:45.292Z,55
2016-05-25T05:14:45.154Z,55
2016-05-25T05:15:51.985Z,50
2016-05-25T05:17:29.631Z,55
2016-05-25T05:18:01.459Z,55
2016-05-25T05:18:42.290Z,60
2016-05-25T05:19:41.886Z,60
2016-05-25T05:20:43.796Z,60
2016-05-25T05:21:42.392Z,60
2016-05-25T05:22:42.411Z,60
2016-05-25T05:23:45.303Z,60
2016-05-25T05:24:42.306Z,60
2016-05-25T05:25:43.872Z,65
2016-05-25T05:26:50.000Z,70
2016-05-25T05:27:55.361Z,70
2016-05-25T05:28:42.505Z,70
2016-05-25T05:29:42.429Z,70
2016-05-25T05:30:42.525Z,70
2016-05-25T05:31:55.591Z,70
2016-05-25T05:32:55.313Z,70
2016-05-25T05:34:01.799Z,75
2016-05-25T05:36:42.824Z,75
2016-05-25T05:37:21.154Z,75
2016-05-25T05:37:55.513Z,75
2016-05-25T05:38:55.266Z,80
2016-05-25T05:39:55.393Z,80
2016-05-25T05:40:56.677Z,85
2016-05-25T05:41:57.024Z,90
2016-05-25T05:42:55.620Z,95
2016-05-25T05:43:58.638Z,95
2016-05-25T05:45:14.973Z,95
2016-05-25T05:45:55.519Z,100
2016-05-25T05:47:26.853Z,95
2016-05-25T05:47:55.384Z,100
2016-05-25T05:48:55.543Z,100
2016-05-25T05:49:55.592Z,105
2016-05-25T05:50:57.220Z,100
2016-05-25T05:51:55.520Z,100
2016-05-25T05:53:08.350Z,100
2016-05-25T05:53:55.697Z,105
2016-05-25T05:55:14.906Z,105
2016-05-25T05:55:58.734Z,100
2016-05-25T05:56:56.955Z,100
2016-05-25T05:57:55.786Z,100
2016-05-25T05:59:15.150Z,95
2016-05-25T05:59:55.806Z,95
2016-05-25T06:01:27.311Z,90
2016-05-25T06:02:09.640Z,90
2016-05-25T06:02:56.189Z,85
2016-05-25T06:03:56.052Z,90
2016-05-25T06:04:56.101Z,90
2016-05-25T06:05:59.869Z,90
2016-05-25T06:07:08.841Z,95
2016-05-25T06:08:02.296Z,105
2016-05-25T06:09:21.537Z,125
2016-05-25T06:09:55.990Z,130
2016-05-25T06:11:27.308Z,115
2016-05-25T06:11:57.730Z,105
2016-05-25T06:12:56.248Z,95
2016-05-25T06:13:56.235Z,90
2016-05-25T06:14:59.315Z,100
2016-05-25T06:15:56.271Z,120
2016-05-25T06:16:56.743Z,130
2016-05-25T06:17:59.198Z,135
2016-05-25T06:19:15.548Z,135
2016-05-25T06:19:56.360Z,135
2016-05-25T06:21:15.585Z,140
2016-05-25T06:23:00.259Z,125
2016-05-25T06:23:59.418Z,125
2016-05-25T06:24:59.718Z,125
2016-05-25T06:25:59.736Z,120
2016-05-25T06:27:01.067Z,130
2016-05-25T06:28:00.116Z,140
2016-05-25T06:28:59.728Z,145
2016-05-25T06:30:02.855Z,165
2016-05-25T06:30:59.718Z,170
2016-05-25T06:32:06.299Z,170
2016-05-25T06:33:01.208Z,175
2016-05-25T06:33:59.773Z,175
2016-05-25T06:34:59.808Z,180
2016-05-25T06:35:59.872Z,175
2016-05-25T06:37:12.406Z,175
2016-05-25T06:38:00.956Z,180
2016-05-25T06:39:12.615Z,175
2016-05-25T06:39:59.946Z,175
2016-05-25T06:40:59.854Z,180
2016-05-25T06:41:59.827Z,185
2016-05-25T06:43:00.626Z,185
2016-05-25T06:43:59.832Z,180
2016-05-25T06:45:12.881Z,175
2016-05-25T06:46:12.759Z,175
2016-05-25T06:47:00.432Z,175
2016-05-25T06:48:14.123Z,165
2016-05-25T06:49:03.188Z,160
2016-05-25T06:50:00.144Z,160
2016-05-25T06:51:12.913Z,155
2016-05-25T06:52:00.181Z,160
2016-05-25T06:53:19.390Z,165
2016-05-25T06:54:12.812Z,170
2016-05-25T06:55:19.457Z,170
2016-05-25T06:56:00.301Z,170
2016-05-25T06:57:03.289Z,160
2016-05-25T06:58:00.275Z,160
2016-05-25T06:59:00.294Z,160
2016-05-25T07:00:12.967Z,170
2016-05-25T07:01:19.817Z,175
2016-05-25T07:02:01.005Z,180
2016-05-25T07:03:55.432Z,175
2016-05-25T07:04:08.103Z,170
2016-05-25T07:05:39.406Z,170
2016-05-25T07:06:20.799Z,170
2016-05-25T07:08:08.177Z,170
2016-05-25T07:09:08.242Z,170
2016-05-25T07:10:20.982Z,165
2016-05-25T07:11:08.138Z,165
2016-05-25T07:12:11.313Z,165
2016-05-25T07:13:08.346Z,170
2016-05-25T07:14:11.490Z,170
2016-05-25T07:15:08.321Z,170
2016-05-25T07:16:08.354Z,170
2016-05-25T07:17:12.107Z,165
2016-05-25T07:18:09.782Z,165
2016-05-25T07:19:14.566Z,160
2016-05-25T07:20:11.475Z,155
2016-05-25T07:21:08.306Z,155
2016-05-25T07:22:08.512Z,160
2016-05-25T07:23:10.140Z,160
2016-05-25T07:24:08.595Z,165
2016-05-25T07:26:11.834Z,160
2016-05-25T07:27:24.512Z,160
2016-05-25T07:28:30.858Z,165
2016-05-25T07:29:24.455Z,165
2016-05-25T07:30:24.614Z,170
2016-05-25T07:31:37.664Z,170
2016-05-25T07:32:31.275Z,175
2016-05-25T07:34:10.247Z,185
2016-05-25T07:34:23.187Z,185
2016-05-25T07:35:23.096Z,190
2016-05-25T07:36:35.881Z,190
2016-05-25T07:37:22.961Z,190
2016-05-25T07:38:26.777Z,190
2016-05-25T07:39:22.982Z,190
2016-05-25T07:40:26.172Z,195
2016-05-25T07:41:23.034Z,200
2016-05-25T07:42:29.224Z,205
2016-05-25T07:43:23.196Z,210
2016-05-25T07:44:36.089Z,215
2016-05-25T07:45:36.123Z,215
2016-05-25T07:47:30.019Z,210
2016-05-25T07:48:47.631Z,205
2016-05-25T07:49:26.307Z,195
2016-05-25T07:50:57.793Z,175
2016-05-25T07:51:26.218Z,170
2016-05-25T07:52:26.564Z,170
2016-05-25T07:53:39.145Z,165
2016-05-25T07:54:26.226Z,160
2016-05-25T07:55:51.979Z,160
2016-05-25T07:56:39.137Z,160
2016-05-25T07:57:31.717Z,175
2016-05-25T07:58:45.596Z,195
2016-05-25T07:59:26.692Z,205
2016-05-25T08:00:52.366Z,225
2016-05-25T08:01:27.400Z,225
2016-05-25T08:02:28.841Z,230
2016-05-25T08:03:47.015Z,225
2016-05-25T08:04:26.800Z,220
2016-05-25T08:05:52.474Z,230
2016-05-25T08:06:28.352Z,235
2016-05-25T08:08:28.935Z,225
2016-05-25T08:09:26.578Z,210
2016-05-25T08:10:39.175Z,200
2016-05-25T08:11:26.944Z,195
2016-05-25T08:12:52.649Z,190
2016-05-25T08:13:27.916Z,200
2016-05-25T08:14:58.326Z,215
2016-05-25T08:15:39.641Z,215
2016-05-25T08:16:58.379Z,215
2016-05-25T08:17:41.850Z,215
2016-05-25T08:18:28.024Z,210
2016-05-25T08:19:27.105Z,210
2016-05-25T08:20:39.890Z,200
2016-05-25T08:21:27.173Z,200
2016-05-25T08:22:30.035Z,205
2016-05-25T08:23:42.148Z,215
2016-05-25T08:24:39.978Z,220
2016-05-25T08:25:27.090Z,225
2016-05-25T08:26:52.951Z,245
2016-05-25T08:27:28.611Z,255
2016-05-25T08:28:27.129Z,255
2016-05-25T08:29:27.382Z,255
2016-05-25T08:30:40.087Z,255
2016-05-25T08:31:40.919Z,255
2016-05-25T08:32:47.453Z,255
2016-05-25T08:33:53.081Z,250
2016-05-25T08:34:30.552Z,250
2016-05-25T08:36:33.478Z,245
2016-05-25T08:37:31.732Z,245
2016-05-25T08:38:27.797Z,245
2016-05-25T08:39:27.566Z,240
2016-05-25T08:40:27.599Z,240
2016-05-25T08:41:40.227Z,235
2016-05-25T08:42:27.574Z,235
2016-05-25T08:44:37.219Z,250
2016-05-25T08:45:49.941Z,250
2016-05-25T08:46:37.427Z,235
2016-05-25T08:47:37.790Z,225
2016-05-25T08:48:36.965Z,215
2016-05-25T08:49:37.138Z,210
2016-05-25T08:50:37.313Z,210
2016-05-25T08:51:38.723Z,210
2016-05-25T08:52:40.382Z,215
2016-05-25T08:53:40.728Z,210
2016-05-25T08:54:37.402Z,205
2016-05-25T08:55:40.499Z,200
2016-05-25T08:56:50.189Z,205
2016-05-25T08:57:40.817Z,205
2016-05-25T08:58:50.085Z,200
2016-05-25T08:59:50.276Z,195
2016-05-25T09:00:56.731Z,190
2016-05-25T09:03:12.862Z,190
2016-05-25T09:03:49.426Z,190
2016-05-25T09:04:47.100Z,185
2016-05-25T09:06:06.651Z,185
2016-05-25T09:06:47.153Z,185
2016-05-25T09:08:56.972Z,190
2016-05-25T09:10:09.739Z,190
2016-05-25T09:10:56.727Z,190
2016-05-25T09:11:56.933Z,190
2016-05-25T09:13:09.795Z,200
2016-05-25T09:14:09.657Z,205
2016-05-25T09:15:16.285Z,215
2016-05-25T09:15:57.100Z,220
2016-05-25T09:17:55.854Z,230
2016-05-25T09:18:10.432Z,245
2016-05-25T09:20:05.501Z,270
2016-05-25T09:20:18.094Z,270
2016-05-25T09:22:28.619Z,270
2016-05-25T09:25:03.577Z,280
2016-05-25T09:25:37.814Z,285
2016-05-25T09:26:37.973Z,295
2016-05-25T09:27:38.240Z,310
2016-05-25T09:28:38.025Z,320
2016-05-25T09:29:38.059Z,310
2016-05-25T09:30:50.937Z,285
2016-05-25T09:31:51.143Z,270
2016-05-25T09:32:37.817Z,255
2016-05-25T09:33:57.351Z,250
2016-05-25T09:34:50.729Z,245
2016-05-25T09:36:03.856Z,245
2016-05-25T09:36:38.297Z,250
2016-05-25T09:37:38.221Z,245
2016-05-25T09:38:51.568Z,245
2016-05-25T09:39:39.805Z,245
2016-05-25T09:41:03.822Z,235
2016-05-25T09:41:38.342Z,230
2016-05-25T09:43:41.003Z,225
2016-05-25T09:43:53.909Z,225
2016-05-25T09:44:53.568Z,235
2016-05-25T09:45:53.993Z,245
2016-05-25T09:46:55.058Z,240
2016-05-25T09:47:53.967Z,240
2016-05-25T09:49:06.547Z,235
2016-05-25T09:49:56.879Z,235
2016-05-25T09:51:50.805Z,255
2016-05-25T09:52:03.493Z,260
2016-05-25T09:53:04.480Z,290
2016-05-25T09:54:03.546Z,325
2016-05-25T09:55:16.267Z,370
2016-05-25T09:56:12.895Z,440
2016-05-25T09:57:06.600Z,525
2016-05-25T09:58:15.885Z,580
2016-05-25T09:59:22.856Z,605
2016-05-25T10:00:22.998Z,615
2016-05-25T10:01:16.251Z,565
2016-05-25T10:02:04.051Z,465
2016-05-25T10:04:00.837Z,300
2016-05-25T10:04:13.447Z,300
2016-05-25T10:06:10.562Z,300
2016-05-25T10:06:29.470Z,300
2016-05-25T10:07:24.939Z,300
2016-05-25T10:08:23.161Z,300
2016-05-25T10:09:23.289Z,305
2016-05-25T10:10:36.075Z,325
2016-05-25T10:11:42.578Z,360
2016-05-25T10:12:42.425Z,400
2016-05-25T10:13:48.927Z,390
2016-05-25T10:15:38.730Z,390
2016-05-25T10:16:38.717Z,390
2016-05-25T10:17:39.080Z,385
2016-05-25T10:18:38.785Z,330
2016-05-25T10:19:41.849Z,275
2016-05-25T10:20:40.383Z,260
2016-05-25T10:21:38.855Z,255
2016-05-25T10:22:51.593Z,255
2016-05-25T10:23:51.720Z,245
2016-05-25T10:25:35.882Z,255
2016-05-25T10:26:07.663Z,255
2016-05-25T10:26:48.431Z,255
2016-05-25T10:28:45.562Z,265
2016-05-25T10:28:58.093Z,270
2016-05-25T10:29:58.345Z,270
2016-05-25T10:31:11.051Z,260
2016-05-25T10:32:18.117Z,260
2016-05-25T10:32:57.901Z,255
2016-05-25T10:33:58.200Z,235
2016-05-25T10:35:11.125Z,220
2016-05-25T10:36:01.190Z,220
2016-05-25T10:37:19.067Z,215
2016-05-25T10:38:02.914Z,210
2016-05-25T10:39:55.466Z,210
2016-05-25T10:40:08.122Z,210
2016-05-25T10:41:10.250Z,215
2016-05-25T10:42:08.190Z,215
2016-05-25T10:43:09.631Z,210
2016-05-25T10:44:27.447Z,205
2016-05-25T10:45:27.529Z,195
2016-05-25T10:46:39.563Z,190
2016-05-25T10:47:27.644Z,190
2016-05-25T10:48:08.488Z,190
2016-05-25T10:49:08.350Z,185
2016-05-25T10:50:27.574Z,190
2016-05-25T10:51:08.371Z,190
2016-05-25T10:52:28.908Z,195
2016-05-25T10:53:17.674Z,195
2016-05-25T10:54:10.207Z,195
2016-05-25T10:56:11.713Z,215
2016-05-25T10:57:25.840Z,225
2016-05-25T10:58:37.048Z,225
2016-05-25T10:59:27.517Z,245
2016-05-25T11:00:24.754Z,275
2016-05-25T11:01:25.616Z,310
2016-05-25T11:02:31.951Z,350
2016-05-25T11:04:27.421Z,415
2016-05-25T11:05:52.974Z,475
2016-05-25T11:06:40.257Z,485
2016-05-25T11:07:58.932Z,500
2016-05-25T11:08:58.966Z,500
2016-05-25T11:09:27.700Z,510
2016-05-25T11:11:02.128Z,510
2016-05-25T11:11:40.490Z,500
2016-05-25T11:12:49.586Z,455
2016-05-25T11:13:53.510Z,425
2016-05-25T11:15:33.422Z,400
2016-05-25T11:16:24.422Z,395
2016-05-25T11:16:45.956Z,390
2016-05-25T11:18:49.119Z,375
2016-05-25T11:19:02.025Z,370
2016-05-25T11:20:01.699Z,340
2016-05-25T11:21:20.904Z,310
2016-05-25T11:22:01.908Z,295
2016-05-25T11:24:11.413Z,285
2016-05-25T11:25:24.259Z,280
2016-05-25T11:26:12.903Z,275
2016-05-25T11:27:37.220Z,270
2016-05-25T11:28:17.798Z,275
2016-05-25T11:29:11.238Z,290
2016-05-25T11:30:30.775Z,315
2016-05-25T11:31:24.150Z,335
2016-05-25T11:32:39.031Z,340
2016-05-25T11:35:33.679Z,320
2016-05-25T11:36:52.822Z,325
2016-05-25T11:37:33.654Z,325
2016-05-25T11:38:33.656Z,335
2016-05-25T11:39:35.096Z,340
2016-05-25T11:40:34.959Z,335
2016-05-25T11:41:47.851Z,325
2016-05-25T11:42:36.604Z,325
2016-05-25T11:44:36.969Z,320
2016-05-25T11:46:34.100Z,320
2016-05-25T11:46:46.647Z,325
2016-05-25T11:48:14.415Z,355
2016-05-25T11:48:48.214Z,365
2016-05-25T11:50:18.170Z,355
2016-05-25T11:51:06.032Z,355
2016-05-25T11:51:46.597Z,360
2016-05-25T11:53:43.899Z,375
2016-05-25T11:53:56.446Z,375
2016-05-25T11:55:59.186Z,380
2016-05-25T11:56:11.905Z,380
2016-05-25T11:57:11.876Z,390
2016-05-25T11:58:11.973Z,395
2016-05-25T11:59:13.366Z,410
2016-05-25T12:00:24.432Z,410
2016-05-25T12:01:21.184Z,405
2016-05-25T12:03:09.440Z,405
2016-05-25T12:03:34.724Z,410
2016-05-25T12:04:22.005Z,415
2016-05-25T12:05:47.806Z,415
2016-05-25T12:06:22.056Z,410
2016-05-25T12:07:53.359Z,435
2016-05-25T12:08:34.878Z,465
2016-05-25T12:10:41.367Z,515
2016-05-25T12:11:25.258Z,515
2016-05-25T12:12:22.197Z,505
2016-05-25T12:13:28.498Z,480
2016-05-25T12:14:34.862Z,475
2016-05-25T12:15:41.317Z,470
2016-05-25T12:16:35.024Z,460
2016-05-25T12:18:15.745Z,445
2016-05-25T12:18:28.339Z,440
2016-05-25T12:20:31.003Z,440
2016-05-25T12:20:43.785Z,435
2016-05-25T12:21:43.600Z,435
2016-05-25T12:22:58.556Z,445
2016-05-25T12:23:45.183Z,460
2016-05-25T12:25:42.126Z,530
2016-05-25T12:25:54.657Z,535
2016-05-25T12:26:54.676Z,590
2016-05-25T12:28:14.038Z,605
2016-05-25T12:28:56.307Z,605
2016-05-25T12:30:20.621Z,580
2016-05-25T12:31:14.155Z,560
2016-05-25T12:32:57.535Z,535
2016-05-25T12:33:35.945Z,530
2016-05-25T12:34:10.288Z,530
2016-05-25T12:36:12.840Z,550
2016-05-25T12:36:25.371Z,555
2016-05-25T12:37:27.640Z,590
2016-05-25T12:38:38.318Z,600
2016-05-25T12:39:25.443Z,575
2016-05-25T12:40:51.323Z,540
2016-05-25T12:41:38.387Z,525
2016-05-25T12:42:56.953Z,500
2016-05-25T12:43:25.703Z,490
2016-05-25T12:45:25.600Z,415
2016-05-25T12:46:27.039Z,395
2016-05-25T12:47:33.264Z,390
2016-05-25T12:48:26.404Z,395
2016-05-25T12:49:25.720Z,410
2016-05-25T12:50:38.646Z,440
2016-05-25T12:51:27.318Z,450
2016-05-25T12:53:16.449Z,465
2016-05-25T12:53:54.702Z,475
2016-05-25T12:56:03.254Z,470
2016-05-25T12:56:44.521Z,460
2016-05-25T12:57:31.615Z,445
2016-05-25T12:58:31.963Z,410
2016-05-25T12:59:32.311Z,400
2016-05-25T13:00:33.282Z,400
2016-05-25T13:01:44.677Z,400
2016-05-25T13:02:32.710Z,400
2016-05-25T13:03:57.478Z,400
2016-05-25T13:04:32.325Z,400
2016-05-25T13:06:38.409Z,425
2016-05-25T13:07:44.645Z,440
2016-05-25T13:09:22.648Z,440
2016-05-25T13:09:35.353Z,440
2016-05-25T13:11:32.404Z,455
2016-05-25T13:11:45.359Z,460
2016-05-25T13:12:47.018Z,475
2016-05-25T13:13:57.881Z,515
2016-05-25T13:14:57.898Z,535
2016-05-25T13:15:45.495Z,555
2016-05-25T13:16:45.311Z,560
2016-05-25T13:17:56.281Z,585
2016-05-25T13:18:48.316Z,610
2016-05-25T13:19:45.319Z,645
2016-05-25T13:20:45.181Z,660
2016-05-25T13:21:45.417Z,660
2016-05-25T13:22:48.717Z,660
2016-05-25T13:23:45.438Z,635
2016-05-25T13:24:58.041Z,630
2016-05-25T13:25:45.442Z,655
2016-05-25T13:26:45.608Z,700
2016-05-25T13:27:58.401Z,675
2016-05-25T13:28:45.676Z,660
2016-05-25T13:30:04.777Z,615
2016-05-25T13:30:58.569Z,600
2016-05-25T13:32:14.018Z,570
2016-05-25T13:32:49.623Z,545
2016-05-25T13:34:48.409Z,540
2016-05-25T13:35:00.972Z,540
2016-05-25T13:36:01.587Z,550
2016-05-25T13:37:01.295Z,555
2016-05-25T13:38:03.832Z,565
2016-05-25T13:39:01.307Z,570
2016-05-25T13:40:20.485Z,565
2016-05-25T13:41:01.130Z,560
2016-05-25T13:42:01.320Z,535
2016-05-25T13:43:01.356Z,510
2016-05-25T13:44:01.781Z,485
2016-05-25T13:45:01.379Z,460
2016-05-25T13:46:01.522Z,445
2016-05-25T13:47:01.354Z,435
2016-05-25T13:48:01.340Z,430
2016-05-25T13:49:01.172Z,420
2016-05-25T13:50:01.816Z,425
2016-05-25T13:51:02.210Z,420
2016-05-25T13:52:01.805Z,415
2016-05-25T13:53:01.636Z,410
2016-05-25T13:54:01.483Z,415
2016-05-25T13:55:01.642Z,420
2016-05-25T13:56:01.535Z,425
2016-05-25T13:57:01.554Z,425
2016-05-25T13:58:02.260Z,425
2016-05-25T13:59:01.777Z,420
2016-05-25T14:00:01.780Z,415
2016-05-25T14:01:01.673Z,420
2016-05-25T14:02:05.504Z,425
2016-05-25T14:03:04.053Z,430
2016-05-25T14:04:01.745Z,435
2016-05-25T14:05:01.747Z,440
2016-05-25T14:06:01.983Z,445
2016-05-25T14:07:02.017Z,450
2016-05-25T14:08:04.973Z,465
2016-05-25T14:09:14.601Z,465
2016-05-25T14:10:02.042Z,465
2016-05-25T14:11:27.747Z,455
2016-05-25T14:12:24.000Z,460
2016-05-25T14:13:03.143Z,460
2016-05-25T14:14:59.414Z,450
2016-05-25T14:15:12.305Z,445
2016-05-25T14:16:11.995Z,445
2016-05-25T14:17:12.154Z,450
2016-05-25T14:18:13.453Z,475
2016-05-25T14:19:12.316Z,500
2016-05-25T14:20:12.208Z,515
2016-05-25T14:21:12.119Z,530
2016-05-25T14:22:13.464Z,525
2016-05-25T14:23:14.280Z,525
2016-05-25T14:24:24.923Z,535
2016-05-25T14:25:12.379Z,530
2016-05-25T14:26:37.932Z,530
2016-05-25T14:27:13.525Z,530
2016-05-25T14:28:43.576Z,515
2016-05-25T14:29:12.436Z,520
2016-05-25T14:30:12.407Z,510
2016-05-25T14:31:12.363Z,520
2016-05-25T14:32:15.866Z,540
2016-05-25T14:33:13.401Z,550
2016-05-25T14:34:12.684Z,560
2016-05-25T14:35:12.765Z,570
2016-05-25T14:36:12.658Z,555
2016-05-25T14:37:14.599Z,525
2016-05-25T14:38:12.711Z,500
2016-05-25T14:39:25.604Z,475
2016-05-25T14:40:12.576Z,480
2016-05-25T14:41:12.656Z,485
2016-05-25T14:42:12.675Z,495
2016-05-25T14:43:12.661Z,500
2016-05-25T14:44:25.430Z,505
2016-05-25T14:45:12.948Z,500
2016-05-25T14:46:12.779Z,500
2016-05-25T14:47:14.844Z,500
2016-05-25T14:48:13.424Z,505